Time;durP1;ratioP1;P1;durP2;ratioP2;P2;SDS_P1;SDS_P2;PMS_P1;PMS_P2;Temp;Humidity;BMP_temperature;BMP_pressure;BME280_temperature;BME280_humidity;BME280_pressure;Samples;Min_cycle;Max_cycle;Signal;HPM_P1;HPM_P2
2023/04/27 00:01:56;;;;;;;34.10;17.90;;;;;;;;;;107716;1252;22531;-79
2023/04/27 00:04:23;;;;;;;31.90;16.70;;;;;;;;;;107808;1248;23074;-79
2023/04/27 00:06:51;;;;;;;32.30;17.90;;;;;;;;;;107765;1248;23161;-78
2023/04/27 00:09:17;;;;;;;31.50;17.60;;;;;;;;;;107765;1247;25213;-79
2023/04/27 00:11:44;;;;;;;26.00;15.60;;;;;;;;;;110862;1247;22616;-79
2023/04/27 00:14:11;;;;;;;33.50;18.80;;;;;;;;;;110886;1247;23111;-79
2023/04/27 00:16:37;;;;;;;26.60;17.10;;;;;;;;;;108367;1247;22540;-79
2023/04/27 00:19:03;;;;;;;26.80;14.20;;;;;;;;;;107707;1247;25359;-79
2023/04/27 00:21:30;;;;;;;30.60;15.20;;;;;;;;;;107786;1252;22517;-79
2023/04/27 00:23:57;;;;;;;30.80;16.90;;;;;;;;;;107797;1253;26027;-78
2023/04/27 00:26:23;;;;;;;35.60;16.20;;;;;;;;;;107783;1247;24232;-78
2023/04/27 00:28:50;;;;;;;26.30;15.40;;;;;;;;;;107760;1248;23747;-79
2023/04/27 00:31:16;;;;;;;30.10;17.40;;;;;;;;;;107664;1251;23258;-78
2023/04/27 00:33:43;;;;;;;29.30;16.90;;;;;;;;;;107630;1251;23475;-79
2023/04/27 00:36:09;;;;;;;26.30;14.90;;;;;;;;;;107553;1250;25333;-78
2023/04/27 00:38:36;;;;;;;30.50;13.80;;;;;;;;;;107559;1249;24330;-79
2023/04/27 00:41:03;;;;;;;30.70;15.30;;;;;;;;;;107534;1250;22538;-79
2023/04/27 00:43:29;;;;;;;29.70;15.30;;;;;;;;;;107542;1250;22629;-78
2023/04/27 00:45:56;;;;;;;25.80;14.50;;;;;;;;;;107558;1249;22528;-78
2023/04/27 00:48:22;;;;;;;26.20;13.30;;;;;;;;;;107590;1249;25314;-79
2023/04/27 00:50:48;;;;;;;26.70;13.10;;;;;;;;;;107512;1251;25479;-79
2023/04/27 00:53:15;;;;;;;29.30;15.30;;;;;;;;;;107565;1251;24228;-78
2023/04/27 00:55:41;;;;;;;23.80;13.00;;;;;;;;;;107501;1250;22559;-78
2023/04/27 00:58:07;;;;;;;28.60;14.30;;;;;;;;;;107643;1253;22547;-79
2023/04/27 01:00:34;;;;;;;25.40;13.40;;;;;;;;;;107668;1250;24338;-79
2023/04/27 01:03:01;;;;;;;25.90;15.40;;;;;;;;;;107677;1250;25908;-79
2023/04/27 01:05:27;;;;;;;32.80;17.30;;;;;;;;;;107581;1250;23666;-79
2023/04/27 01:07:54;;;;;;;35.30;19.20;;;;;;;;;;110008;1249;22505;-79
2023/04/27 01:10:20;;;;;;;30.50;14.00;;;;;;;;;;109084;1249;25378;-79
2023/04/27 01:12:46;;;;;;;29.10;17.40;;;;;;;;;;107660;1250;22567;-79
2023/04/27 01:15:13;;;;;;;32.20;22.20;;;;;;;;;;107643;1248;23172;-78
2023/04/27 01:17:40;;;;;;;34.50;20.50;;;;;;;;;;107676;1252;22546;-79
2023/04/27 01:20:10;;;;;;;23.00;14.20;;;;;;;;;;107613;1250;23385;-78
2023/04/27 01:22:37;;;;;;;30.50;14.50;;;;;;;;;;107672;1250;22515;-78
2023/04/27 01:25:03;;;;;;;26.20;13.10;;;;;;;;;;108135;1250;22541;-79
2023/04/27 01:27:29;;;;;;;23.60;13.50;;;;;;;;;;107618;1252;22532;-79
2023/04/27 01:29:56;;;;;;;25.90;13.40;;;;;;;;;;107563;1251;22535;-79
2023/04/27 01:32:22;;;;;;;25.70;12.30;;;;;;;;;;107705;1251;22514;-79
2023/04/27 01:34:48;;;;;;;24.50;13.40;;;;;;;;;;107670;1252;25312;-79
2023/04/27 01:37:15;;;;;;;27.30;12.50;;;;;;;;;;107694;1250;22544;-79
2023/04/27 01:39:41;;;;;;;25.00;12.20;;;;;;;;;;107656;1251;22523;-79
2023/04/27 01:42:07;;;;;;;27.30;13.30;;;;;;;;;;107638;1250;25309;-79
2023/04/27 01:44:34;;;;;;;24.10;13.60;;;;;;;;;;107669;1249;24201;-79
2023/04/27 01:47:01;;;;;;;22.40;12.70;;;;;;;;;;107625;1250;24200;-79
2023/04/27 01:49:27;;;;;;;24.10;13.60;;;;;;;;;;108596;1249;23103;-79
2023/04/27 01:51:53;;;;;;;22.60;12.90;;;;;;;;;;110987;1249;22306;-79
2023/04/27 01:54:20;;;;;;;25.50;13.30;;;;;;;;;;109084;1248;22830;-79
2023/04/27 01:56:46;;;;;;;34.40;14.30;;;;;;;;;;107592;1252;22547;-79
2023/04/27 01:59:12;;;;;;;28.20;15.70;;;;;;;;;;107422;1249;133559;-78
2023/04/27 02:01:39;;;;;;;24.10;12.60;;;;;;;;;;107565;1248;24276;-79
2023/04/27 02:04:05;;;;;;;26.70;14.40;;;;;;;;;;107624;1249;22643;-81
2023/04/27 02:06:32;;;;;;;25.00;12.60;;;;;;;;;;107720;1248;25384;-79
2023/04/27 02:08:58;;;;;;;24.90;14.20;;;;;;;;;;107685;1248;22758;-79
2023/04/27 02:11:25;;;;;;;25.30;12.40;;;;;;;;;;107660;1248;22634;-78
2023/04/27 02:13:51;;;;;;;23.40;11.20;;;;;;;;;;107620;1250;22528;-79
2023/04/27 02:16:18;;;;;;;23.00;12.40;;;;;;;;;;107686;1250;24186;-78
2023/04/27 02:18:44;;;;;;;24.50;10.60;;;;;;;;;;107649;1252;22524;-78
2023/04/27 02:21:11;;;;;;;26.70;12.50;;;;;;;;;;107627;1248;22553;-79
2023/04/27 02:23:37;;;;;;;21.20;11.20;;;;;;;;;;107667;1249;25300;-78
2023/04/27 02:26:04;;;;;;;22.00;11.80;;;;;;;;;;107659;1250;22959;-79
2023/04/27 02:28:31;;;;;;;28.60;11.90;;;;;;;;;;107646;1249;22582;-78
2023/04/27 02:30:57;;;;;;;21.30;12.80;;;;;;;;;;107703;1248;23299;-79
2023/04/27 02:33:24;;;;;;;27.20;14.00;;;;;;;;;;107687;1249;24208;-79
2023/04/27 02:35:50;;;;;;;20.70;11.50;;;;;;;;;;107638;1249;22534;-78
2023/04/27 02:38:16;;;;;;;22.30;11.90;;;;;;;;;;107659;1252;25358;-78
2023/04/27 02:40:43;;;;;;;21.30;12.40;;;;;;;;;;107652;1248;22538;-79
2023/04/27 02:43:09;;;;;;;28.10;15.20;;;;;;;;;;107654;1252;22531;-78
2023/04/27 02:45:37;;;;;;;26.00;12.20;;;;;;;;;;107607;1248;25507;-78
2023/04/27 02:48:03;;;;;;;24.20;11.70;;;;;;;;;;107633;1249;25387;-78
2023/04/27 02:50:30;;;;;;;26.40;11.50;;;;;;;;;;107598;1248;24202;-78
2023/04/27 02:52:56;;;;;;;23.00;12.00;;;;;;;;;;107670;1249;26488;-79
2023/04/27 02:55:22;;;;;;;31.80;13.50;;;;;;;;;;107629;1252;22523;-78
2023/04/27 02:57:49;;;;;;;22.80;11.50;;;;;;;;;;107572;1250;24241;-78
2023/04/27 03:00:15;;;;;;;21.10;11.30;;;;;;;;;;107527;1249;22523;-78
2023/04/27 03:02:42;;;;;;;22.90;12.10;;;;;;;;;;107679;1248;25350;-78
2023/04/27 03:05:08;;;;;;;23.50;12.70;;;;;;;;;;107650;1248;22511;-79
2023/04/27 03:07:34;;;;;;;24.20;13.10;;;;;;;;;;107653;1249;25493;-78
2023/04/27 03:10:01;;;;;;;27.40;13.90;;;;;;;;;;107656;1249;22520;-79
2023/04/27 03:12:27;;;;;;;25.50;11.20;;;;;;;;;;107671;1249;22515;-79
2023/04/27 03:14:53;;;;;;;22.00;12.10;;;;;;;;;;107683;1248;22544;-78
2023/04/27 03:17:20;;;;;;;24.50;14.00;;;;;;;;;;108626;1249;22287;-79
2023/04/27 03:19:48;;;;;;;26.10;11.10;;;;;;;;;;110956;1248;22231;-79
2023/04/27 03:22:14;;;;;;;17.20;10.40;;;;;;;;;;110979;1248;22451;-79
2023/04/27 03:24:41;;;;;;;21.20;12.40;;;;;;;;;;110943;1250;22181;-79
2023/04/27 03:27:07;;;;;;;25.60;12.50;;;;;;;;;;111021;1248;22304;-79
2023/04/27 03:29:34;;;;;;;21.90;12.20;;;;;;;;;;110936;1249;22485;-79
2023/04/27 03:32:00;;;;;;;22.60;12.90;;;;;;;;;;108553;1249;22552;-79
2023/04/27 03:34:27;;;;;;;21.90;12.10;;;;;;;;;;107577;1250;25528;-78
2023/04/27 03:36:53;;;;;;;24.10;11.40;;;;;;;;;;107672;1249;22573;-78
2023/04/27 03:39:19;;;;;;;21.10;10.60;;;;;;;;;;107620;1249;22622;-78
2023/04/27 03:41:46;;;;;;;24.90;13.10;;;;;;;;;;107579;1248;24149;-78
2023/04/27 03:44:12;;;;;;;23.10;12.40;;;;;;;;;;107612;1248;22530;-79
2023/04/27 03:46:38;;;;;;;23.30;12.00;;;;;;;;;;107619;1252;22520;-78
2023/04/27 03:49:05;;;;;;;20.30;11.20;;;;;;;;;;107680;1250;24297;-78
2023/04/27 03:51:32;;;;;;;26.90;12.20;;;;;;;;;;107619;1250;23459;-78
2023/04/27 03:53:58;;;;;;;20.50;11.00;;;;;;;;;;107646;1249;23890;-79
2023/04/27 03:56:25;;;;;;;35.00;13.30;;;;;;;;;;107599;1249;25494;-78
2023/04/27 03:58:51;;;;;;;25.40;13.10;;;;;;;;;;107503;1249;25333;-79
2023/04/27 04:01:17;;;;;;;32.70;13.90;;;;;;;;;;107517;1250;22679;-78
2023/04/27 04:03:44;;;;;;;21.40;10.40;;;;;;;;;;107678;1248;22535;-78
2023/04/27 04:06:10;;;;;;;22.80;11.10;;;;;;;;;;107659;1249;22578;-79
2023/04/27 04:08:37;;;;;;;19.10;9.50;;;;;;;;;;107649;1249;25290;-78
2023/04/27 04:11:03;;;;;;;18.70;9.80;;;;;;;;;;107649;1248;22587;-79
2023/04/27 04:13:30;;;;;;;23.40;11.20;;;;;;;;;;107672;1250;22548;-78
2023/04/27 04:16:03;;;;;;;27.80;12.40;;;;;;;;;;107634;1250;22547;-80
2023/04/27 04:18:29;;;;;;;16.60;10.90;;;;;;;;;;107706;1250;25220;-80
2023/04/27 04:20:56;;;;;;;22.70;12.00;;;;;;;;;;107705;1250;24375;-80
2023/04/27 04:23:23;;;;;;;23.70;11.00;;;;;;;;;;107642;1248;22528;-79
2023/04/27 04:25:49;;;;;;;20.20;11.20;;;;;;;;;;107626;1252;22535;-79
2023/04/27 04:28:16;;;;;;;32.10;13.20;;;;;;;;;;107714;1250;25350;-79
2023/04/27 04:30:42;;;;;;;20.30;10.80;;;;;;;;;;107615;1250;25362;-79
2023/04/27 04:33:08;;;;;;;28.30;11.80;;;;;;;;;;107641;1249;23264;-79
2023/04/27 04:35:38;;;;;;;19.90;10.50;;;;;;;;;;107643;1250;25291;-79
2023/04/27 04:38:04;;;;;;;21.70;11.90;;;;;;;;;;107641;1252;22704;-79
2023/04/27 04:40:31;;;;;;;25.70;13.20;;;;;;;;;;107612;1248;22520;-78
2023/04/27 04:42:57;;;;;;;28.60;13.40;;;;;;;;;;107604;1250;23280;-79
2023/04/27 04:45:23;;;;;;;26.20;12.30;;;;;;;;;;107622;1249;25354;-79
2023/04/27 04:47:50;;;;;;;29.10;13.20;;;;;;;;;;107640;1252;22528;-79
2023/04/27 04:50:16;;;;;;;20.90;11.80;;;;;;;;;;108143;1250;22586;-79
2023/04/27 04:52:43;;;;;;;25.60;13.10;;;;;;;;;;108130;1250;23902;-79
2023/04/27 04:55:09;;;;;;;22.70;12.00;;;;;;;;;;108113;1250;23227;-79
2023/04/27 04:57:36;;;;;;;19.30;10.60;;;;;;;;;;108161;1248;23075;-79
2023/04/27 05:00:11;;;;;;;31.40;11.50;;;;;;;;;;108096;1250;22481;-79
2023/04/27 05:02:38;;;;;;;20.70;11.00;;;;;;;;;;108288;1252;22557;-79
2023/04/27 05:05:04;;;;;;;25.50;12.40;;;;;;;;;;108438;1249;22619;-79
2023/04/27 05:07:30;;;;;;;21.40;11.10;;;;;;;;;;108142;1248;22535;-79
2023/04/27 05:09:57;;;;;;;20.20;11.60;;;;;;;;;;108220;1247;24231;-79
2023/04/27 05:12:23;;;;;;;15.40;8.90;;;;;;;;;;107744;1248;22524;-79
2023/04/27 05:14:50;;;;;;;17.10;9.50;;;;;;;;;;107638;1250;24930;-79
2023/04/27 05:17:16;;;;;;;21.70;11.80;;;;;;;;;;107692;1251;23566;-79
2023/04/27 05:19:43;;;;;;;17.30;9.80;;;;;;;;;;107680;1252;25347;-80
2023/04/27 05:22:09;;;;;;;20.70;9.90;;;;;;;;;;107646;1248;24441;-79
2023/04/27 05:24:36;;;;;;;21.90;10.20;;;;;;;;;;107641;1248;22573;-79
2023/04/27 05:27:02;;;;;;;17.90;9.60;;;;;;;;;;107833;1250;22622;-79
2023/04/27 05:29:29;;;;;;;24.70;10.50;;;;;;;;;;107664;1249;22572;-79
2023/04/27 05:31:55;;;;;;;20.50;9.70;;;;;;;;;;107781;1249;25354;-79
2023/04/27 05:34:22;;;;;;;23.00;10.00;;;;;;;;;;107733;1250;24194;-79
2023/04/27 05:36:48;;;;;;;19.90;9.50;;;;;;;;;;108205;1250;28908;-80
2023/04/27 05:39:14;;;;;;;19.60;10.00;;;;;;;;;;108301;1248;22720;-79
2023/04/27 05:41:41;;;;;;;21.40;10.10;;;;;;;;;;108727;1250;22528;-79
2023/04/27 05:44:07;;;;;;;18.30;11.00;;;;;;;;;;108698;1250;23099;-79
2023/04/27 05:46:34;;;;;;;24.40;11.20;;;;;;;;;;109062;1249;23246;-80
2023/04/27 05:49:00;;;;;;;29.50;12.80;;;;;;;;;;108911;1247;22517;-79
2023/04/27 05:51:27;;;;;;;20.20;11.10;;;;;;;;;;108935;1250;22534;-80
2023/04/27 05:53:54;;;;;;;22.70;11.30;;;;;;;;;;108780;1248;23029;-80
2023/04/27 05:56:20;;;;;;;24.20;12.10;;;;;;;;;;108264;1251;23241;-80
2023/04/27 05:58:47;;;;;;;22.70;10.50;;;;;;;;;;108001;1248;22518;-80
2023/04/27 06:01:13;;;;;;;21.40;10.80;;;;;;;;;;108243;1248;23044;-80
2023/04/27 06:03:39;;;;;;;23.90;11.00;;;;;;;;;;108338;1248;25393;-79
2023/04/27 06:06:06;;;;;;;36.30;13.80;;;;;;;;;;108295;1251;22497;-79
2023/04/27 06:08:36;;;;;;;24.70;13.00;;;;;;;;;;108291;1250;23131;-80
2023/04/27 06:11:02;;;;;;;22.30;11.80;;;;;;;;;;108030;1249;22613;-80
2023/04/27 06:13:29;;;;;;;24.30;11.70;;;;;;;;;;107805;1250;22612;-79
2023/04/27 06:15:56;;;;;;;22.20;10.50;;;;;;;;;;107771;1249;22576;-80
2023/04/27 06:18:22;;;;;;;26.70;11.80;;;;;;;;;;108512;1250;23382;-79
2023/04/27 06:20:48;;;;;;;24.40;11.00;;;;;;;;;;109071;1248;22515;-79
2023/04/27 06:23:15;;;;;;;18.60;10.90;;;;;;;;;;109033;1248;22991;-79
2023/04/27 06:25:41;;;;;;;29.60;10.70;;;;;;;;;;108906;1250;22585;-78
2023/04/27 06:28:07;;;;;;;15.10;9.90;;;;;;;;;;108010;1251;22542;-78
2023/04/27 06:30:34;;;;;;;23.60;11.70;;;;;;;;;;107976;1249;24177;-80
2023/04/27 06:33:00;;;;;;;19.80;10.20;;;;;;;;;;108021;1249;25357;-79
2023/04/27 06:35:26;;;;;;;20.00;10.20;;;;;;;;;;108537;1251;22972;-79
2023/04/27 06:37:57;;;;;;;26.50;11.50;;;;;;;;;;107846;1250;24404;-79
2023/04/27 06:40:24;;;;;;;17.60;9.60;;;;;;;;;;107835;1250;23760;-79
2023/04/27 06:42:51;;;;;;;17.90;11.40;;;;;;;;;;108018;1250;23778;-79
2023/04/27 06:45:17;;;;;;;17.80;12.30;;;;;;;;;;108031;1248;25197;-79
2023/04/27 06:47:44;;;;;;;20.90;12.50;;;;;;;;;;108069;1249;23176;-80
2023/04/27 06:50:10;;;;;;;15.70;9.70;;;;;;;;;;108280;1250;25384;-79
2023/04/27 06:52:37;;;;;;;15.40;7.60;;;;;;;;;;108056;1249;22777;-80
2023/04/27 06:55:03;;;;;;;12.20;7.10;;;;;;;;;;107903;1250;24183;-79
2023/04/27 06:57:30;;;;;;;17.10;7.40;;;;;;;;;;108215;1250;26356;-79
2023/04/27 06:59:56;;;;;;;11.90;6.40;;;;;;;;;;107757;1248;22596;-79
2023/04/27 07:02:22;;;;;;;15.90;8.80;;;;;;;;;;107777;1249;25495;-79
2023/04/27 07:04:50;;;;;;;21.40;11.60;;;;;;;;;;107859;1250;25416;-78
2023/04/27 07:07:17;;;;;;;14.10;7.00;;;;;;;;;;110181;1249;23254;-78
2023/04/27 07:09:43;;;;;;;11.50;5.80;;;;;;;;;;110211;1248;22603;-78
2023/04/27 07:12:10;;;;;;;10.20;5.10;;;;;;;;;;109315;1249;25384;-78
2023/04/27 07:14:36;;;;;;;11.20;5.90;;;;;;;;;;108008;1248;22540;-78
2023/04/27 07:17:02;;;;;;;11.30;6.70;;;;;;;;;;107984;1250;23295;-77
2023/04/27 07:19:29;;;;;;;12.10;6.90;;;;;;;;;;107771;1248;24282;-80
2023/04/27 07:21:55;;;;;;;11.50;6.00;;;;;;;;;;108497;1248;23180;-79
2023/04/27 07:24:22;;;;;;;12.10;6.10;;;;;;;;;;108279;1248;24236;-78
2023/04/27 07:26:49;;;;;;;14.10;6.00;;;;;;;;;;108192;1249;23813;-81
2023/04/27 07:29:16;;;;;;;12.20;5.30;;;;;;;;;;108205;1249;22582;-78
2023/04/27 07:31:42;;;;;;;10.50;6.10;;;;;;;;;;108147;1250;23467;-78
2023/04/27 07:34:10;;;;;;;16.20;9.80;;;;;;;;;;108028;1251;25256;-78
2023/04/27 07:36:36;;;;;;;13.90;6.60;;;;;;;;;;107800;1250;25403;-79
2023/04/27 07:39:03;;;;;;;21.00;11.10;;;;;;;;;;107779;1250;25496;-78
2023/04/27 07:41:29;;;;;;;47.30;21.70;;;;;;;;;;107744;1250;22528;-79
2023/04/27 07:43:56;;;;;;;106.80;49.30;;;;;;;;;;107754;1248;22550;-79
2023/04/27 07:46:23;;;;;;;17.90;7.60;;;;;;;;;;108134;1250;22636;-78
2023/04/27 07:48:49;;;;;;;12.50;5.70;;;;;;;;;;107762;1249;23131;-78
2023/04/27 07:51:16;;;;;;;15.80;6.50;;;;;;;;;;107621;1250;22535;-78
2023/04/27 07:53:42;;;;;;;13.50;7.10;;;;;;;;;;107624;1249;23025;-78
2023/04/27 07:56:09;;;;;;;13.10;5.80;;;;;;;;;;108005;1248;22564;-79
2023/04/27 07:58:36;;;;;;;10.90;6.10;;;;;;;;;;108267;1249;24393;-78
2023/04/27 08:01:03;;;;;;;13.00;5.70;;;;;;;;;;107797;1248;22534;-78
2023/04/27 08:03:29;;;;;;;11.10;5.50;;;;;;;;;;107869;1249;24338;-78
2023/04/27 08:05:56;;;;;;;10.40;4.40;;;;;;;;;;107868;1250;22623;-79
2023/04/27 08:08:22;;;;;;;14.50;4.50;;;;;;;;;;107900;1248;22980;-78
2023/04/27 08:10:48;;;;;;;11.60;5.00;;;;;;;;;;108129;1250;24253;-78
2023/04/27 08:13:14;;;;;;;10.90;5.40;;;;;;;;;;108193;1250;22544;-79
2023/04/27 08:15:41;;;;;;;12.20;5.80;;;;;;;;;;108179;1249;22598;-78
2023/04/27 08:18:07;;;;;;;14.40;6.70;;;;;;;;;;108265;1249;22519;-78
2023/04/27 08:20:33;;;;;;;11.20;5.90;;;;;;;;;;108142;1249;23010;-77
2023/04/27 08:23:00;;;;;;;11.80;5.60;;;;;;;;;;107909;1252;22514;-78
2023/04/27 08:25:26;;;;;;;16.00;6.90;;;;;;;;;;107853;1252;24933;-78
2023/04/27 08:27:52;;;;;;;22.40;6.00;;;;;;;;;;107913;1250;22572;-78
2023/04/27 08:30:20;;;;;;;6.70;3.80;;;;;;;;;;107661;1249;25336;-78
2023/04/27 08:32:46;;;;;;;17.10;6.60;;;;;;;;;;108167;1250;22665;-77
2023/04/27 08:35:13;;;;;;;12.20;3.40;;;;;;;;;;108143;1250;22641;-77
2023/04/27 08:37:40;;;;;;;7.20;3.70;;;;;;;;;;108173;1249;22592;-77
2023/04/27 08:40:06;;;;;;;15.40;6.20;;;;;;;;;;108146;1249;23510;-78
2023/04/27 08:42:33;;;;;;;12.40;5.80;;;;;;;;;;107872;1250;23164;-80
2023/04/27 08:44:59;;;;;;;20.20;5.20;;;;;;;;;;107713;1250;23124;-80
2023/04/27 08:47:26;;;;;;;13.60;5.80;;;;;;;;;;107956;1250;22974;-79
2023/04/27 08:49:52;;;;;;;12.10;5.50;;;;;;;;;;107911;1251;22678;-80
2023/04/27 08:52:18;;;;;;;15.90;7.40;;;;;;;;;;108176;1250;24231;-79
2023/04/27 08:54:45;;;;;;;17.30;7.60;;;;;;;;;;108097;1250;25388;-79
2023/04/27 08:57:11;;;;;;;12.30;5.30;;;;;;;;;;107831;1250;22680;-79
2023/04/27 08:59:39;;;;;;;17.90;6.30;;;;;;;;;;107916;1248;25399;-79
2023/04/27 09:02:05;;;;;;;15.10;6.20;;;;;;;;;;108015;1248;26060;-79
2023/04/27 09:04:38;;;;;;;12.90;6.10;;;;;;;;;;107849;1250;22549;-79
2023/04/27 09:07:11;;;;;;;12.80;6.80;;;;;;;;;;108328;1252;22549;-80
2023/04/27 09:09:37;;;;;;;12.00;4.90;;;;;;;;;;107803;1252;25313;-79
2023/04/27 09:12:17;;;;;;;13.30;7.70;;;;;;;;;;107718;1250;23003;-79
2023/04/27 09:14:43;;;;;;;13.10;5.60;;;;;;;;;;107853;1249;22659;-80
2023/04/27 09:17:10;;;;;;;7.20;3.20;;;;;;;;;;108888;1252;22538;-77
2023/04/27 09:19:36;;;;;;;8.40;4.50;;;;;;;;;;108201;1249;22534;-77
2023/04/27 09:22:03;;;;;;;8.20;5.30;;;;;;;;;;108349;1250;22980;-77
2023/04/27 09:24:29;;;;;;;15.30;8.60;;;;;;;;;;108373;1250;22537;-78
2023/04/27 09:26:56;;;;;;;7.30;4.60;;;;;;;;;;108168;1248;25210;-77
2023/04/27 09:29:35;;;;;;;15.00;6.10;;;;;;;;;;107834;1250;22665;-79
2023/04/27 09:32:12;;;;;;;10.20;4.80;;;;;;;;;;107994;1250;22568;-81
2023/04/27 09:34:40;;;;;;;11.00;4.70;;;;;;;;;;108024;1250;22618;-79
2023/04/27 09:37:06;;;;;;;11.40;6.50;;;;;;;;;;107992;1250;24201;-79
2023/04/27 09:39:33;;;;;;;7.30;4.20;;;;;;;;;;108135;1250;25466;-79
2023/04/27 09:41:59;;;;;;;8.60;4.40;;;;;;;;;;108363;1248;22633;-82
2023/04/27 09:44:26;;;;;;;13.00;5.00;;;;;;;;;;107989;1250;22563;-79
2023/04/27 09:46:53;;;;;;;12.90;5.30;;;;;;;;;;107909;1247;25278;-79
2023/04/27 09:49:19;;;;;;;22.10;9.90;;;;;;;;;;107839;1250;23026;-79
2023/04/27 09:51:45;;;;;;;17.70;6.70;;;;;;;;;;107558;1253;25526;-79
2023/04/27 09:54:12;;;;;;;9.90;4.70;;;;;;;;;;108192;1250;23351;-79
2023/04/27 09:56:41;;;;;;;6.90;4.90;;;;;;;;;;108221;1248;25472;-79
2023/04/27 09:59:07;;;;;;;;;;;;;;;;;;108158;1248;22623;-79
2023/04/27 10:01:42;;;;;;;9.30;4.00;;;;;;;;;;108223;1252;22538;-79
2023/04/27 10:04:24;;;;;;;8.30;3.70;;;;;;;;;;108092;1250;56267;-79
2023/04/27 10:07:06;;;;;;;8.50;4.10;;;;;;;;;;108262;1248;22558;-77
2023/04/27 10:09:35;;;;;;;13.60;6.70;;;;;;;;;;108224;1250;23140;-77
2023/04/27 10:12:20;;;;;;;8.50;4.80;;;;;;;;;;108091;1250;23231;-77
2023/04/27 10:14:50;;;;;;;6.50;3.60;;;;;;;;;;108188;1249;24580;-77
2023/04/27 10:17:16;;;;;;;10.40;3.40;;;;;;;;;;107983;1248;25965;-77
2023/04/27 10:19:53;;;;;;;4.70;3.10;;;;;;;;;;108114;1252;60315;-78
2023/04/27 10:22:20;;;;;;;10.50;4.90;;;;;;;;;;108122;1250;26372;-77
2023/04/27 10:24:47;;;;;;;7.00;4.30;;;;;;;;;;107631;1250;22651;-80
2023/04/27 10:27:15;;;;;;;14.40;4.50;;;;;;;;;;108409;1251;22741;-80
2023/04/27 10:29:42;;;;;;;12.30;6.70;;;;;;;;;;107648;1249;22567;-79
2023/04/27 10:32:13;;;;;;;10.00;4.90;;;;;;;;;;108230;1252;22517;-79
2023/04/27 10:34:40;;;;;;;7.40;3.50;;;;;;;;;;107881;1249;56777;-79
2023/04/27 10:37:07;;;;;;;7.90;4.20;;;;;;;;;;107697;1250;25268;-79
2023/04/27 10:39:34;;;;;;;7.30;3.90;;;;;;;;;;107773;1252;25403;-79
2023/04/27 10:42:01;;;;;;;9.50;3.90;;;;;;;;;;107686;1250;22526;-79
2023/04/27 10:44:28;;;;;;;7.60;3.90;;;;;;;;;;107832;1250;22670;-79
2023/04/27 10:46:55;;;;;;;7.50;3.90;;;;;;;;;;108149;1250;22545;-79
2023/04/27 10:49:21;;;;;;;12.30;4.90;;;;;;;;;;108316;1250;23067;-79
2023/04/27 10:51:50;;;;;;;7.90;3.40;;;;;;;;;;108142;1248;44203;-79
2023/04/27 10:54:17;;;;;;;;;;;;;;;;;;108057;1250;22500;-79
2023/04/27 10:56:44;;;;;;;12.60;4.20;;;;;;;;;;108180;1250;22788;-80
2023/04/27 10:59:10;;;;;;;9.50;4.80;;;;;;;;;;108208;1248;23923;-79
2023/04/27 11:01:37;;;;;;;12.20;4.50;;;;;;;;;;108202;1248;23476;-79
2023/04/27 11:04:04;;;;;;;13.60;6.50;;;;;;;;;;107770;1251;25249;-79
2023/04/27 11:06:33;;;;;;;9.10;5.90;;;;;;;;;;107802;1249;22938;-80
2023/04/27 11:09:00;;;;;;;9.30;3.90;;;;;;;;;;107757;1251;25079;-81
2023/04/27 11:11:26;;;;;;;8.50;4.20;;;;;;;;;;108020;1250;22524;-80
2023/04/27 11:13:54;;;;;;;8.10;3.60;;;;;;;;;;108165;1249;22534;-79
2023/04/27 11:16:20;;;;;;;9.80;3.80;;;;;;;;;;108200;1250;22546;-79
2023/04/27 11:18:47;;;;;;;6.70;4.40;;;;;;;;;;108104;1248;57566;-79
2023/04/27 11:21:14;;;;;;;8.60;4.50;;;;;;;;;;107901;1248;25490;-79
2023/04/27 11:23:41;;;;;;;10.20;4.50;;;;;;;;;;110366;1248;22561;-79
2023/04/27 11:26:11;;;;;;;7.30;5.00;;;;;;;;;;108069;1252;25295;-79
2023/04/27 11:28:37;;;;;;;11.30;4.70;;;;;;;;;;108157;1250;23099;-79
2023/04/27 11:31:05;;;;;;;10.50;4.20;;;;;;;;;;108104;1250;22511;-79
2023/04/27 11:33:31;;;;;;;15.80;7.10;;;;;;;;;;108138;1250;22523;-78
2023/04/27 11:35:58;;;;;;;7.80;4.50;;;;;;;;;;108125;1248;22537;-80
2023/04/27 11:38:24;;;;;;;12.20;5.10;;;;;;;;;;108059;1250;25387;-79
2023/04/27 11:41:04;;;;;;;8.40;4.70;;;;;;;;;;107581;1250;24239;-79
2023/04/27 11:43:31;;;;;;;8.70;4.20;;;;;;;;;;107621;1250;24278;-79
2023/04/27 11:45:57;;;;;;;8.40;4.50;;;;;;;;;;107605;1249;24260;-79
2023/04/27 11:48:24;;;;;;;7.70;4.30;;;;;;;;;;107653;1252;22550;-79
2023/04/27 11:50:52;;;;;;;7.30;4.40;;;;;;;;;;107854;1250;23801;-79
2023/04/27 11:53:28;;;;;;;9.20;4.20;;;;;;;;;;107938;1251;24174;-79
2023/04/27 11:55:54;;;;;;;7.70;4.10;;;;;;;;;;107817;1250;24285;-79
2023/04/27 11:58:20;;;;;;;6.30;4.30;;;;;;;;;;108208;1248;55177;-79
2023/04/27 12:00:47;;;;;;;10.10;4.60;;;;;;;;;;107977;1252;22523;-79
2023/04/27 12:03:15;;;;;;;9.40;4.90;;;;;;;;;;107992;1250;22542;-79
2023/04/27 12:05:51;;;;;;;7.70;4.60;;;;;;;;;;107592;1250;24899;-79
2023/04/27 12:08:18;;;;;;;8.80;4.50;;;;;;;;;;107959;1250;22511;-79
2023/04/27 12:10:44;;;;;;;9.10;4.30;;;;;;;;;;108167;1248;25384;-79
2023/04/27 12:13:11;;;;;;;9.10;3.70;;;;;;;;;;108096;1248;22533;-79
2023/04/27 12:15:37;;;;;;;10.10;3.70;;;;;;;;;;108038;1250;22540;-79
2023/04/27 12:18:04;;;;;;;6.70;4.30;;;;;;;;;;108210;1248;23207;-79
2023/04/27 12:20:30;;;;;;;7.90;5.30;;;;;;;;;;107687;1252;22715;-79
2023/04/27 12:22:57;;;;;;;15.10;6.70;;;;;;;;;;107840;1250;22546;-79
2023/04/27 12:25:23;;;;;;;8.30;4.60;;;;;;;;;;107831;1249;25377;-78
2023/04/27 12:27:50;;;;;;;9.50;4.90;;;;;;;;;;108008;1252;25370;-78
2023/04/27 12:30:17;;;;;;;12.00;4.70;;;;;;;;;;107788;1249;22620;-78
2023/04/27 12:32:43;;;;;;;11.80;7.30;;;;;;;;;;107723;1249;22643;-78
2023/04/27 12:35:10;;;;;;;23.30;14.90;;;;;;;;;;107733;1250;25067;-79
2023/04/27 12:37:36;;;;;;;11.70;5.20;;;;;;;;;;107816;1248;22525;-78
2023/04/27 12:40:07;;;;;;;7.70;4.40;;;;;;;;;;107533;1253;22646;-78
2023/04/27 12:42:34;;;;;;;11.10;6.30;;;;;;;;;;107735;1250;25402;-79
2023/04/27 12:45:01;;;;;;;17.40;7.30;;;;;;;;;;108060;1249;22528;-79
2023/04/27 12:47:27;;;;;;;20.70;7.60;;;;;;;;;;108155;1252;22471;-79
2023/04/27 12:49:54;;;;;;;17.80;8.00;;;;;;;;;;108258;1248;22612;-79
2023/04/27 12:52:21;;;;;;;11.70;5.80;;;;;;;;;;110647;1248;23163;-79
2023/04/27 12:54:48;;;;;;;13.30;8.20;;;;;;;;;;109778;1250;22531;-79
2023/04/27 12:57:14;;;;;;;9.00;5.40;;;;;;;;;;108054;1249;25500;-78
2023/04/27 12:59:40;;;;;;;17.30;5.60;;;;;;;;;;108092;1250;24301;-79
2023/04/27 13:02:07;;;;;;;13.90;6.60;;;;;;;;;;108037;1250;22512;-77
2023/04/27 13:04:34;;;;;;;9.50;5.20;;;;;;;;;;108098;1253;25042;-78
2023/04/27 13:07:00;;;;;;;7.90;4.90;;;;;;;;;;107709;1250;24101;-78
2023/04/27 13:09:27;;;;;;;8.70;5.40;;;;;;;;;;107876;1250;25221;-81
2023/04/27 13:11:53;;;;;;;13.20;5.80;;;;;;;;;;107664;1252;22530;-80
2023/04/27 13:14:19;;;;;;;13.20;6.00;;;;;;;;;;107594;1253;22535;-78
2023/04/27 13:16:46;;;;;;;10.80;5.50;;;;;;;;;;107719;1250;22981;-78
2023/04/27 13:19:12;;;;;;;12.30;5.70;;;;;;;;;;108182;1250;22523;-78
2023/04/27 13:21:38;;;;;;;8.30;5.20;;;;;;;;;;107763;1248;22687;-79
2023/04/27 13:24:05;;;;;;;15.60;5.90;;;;;;;;;;107839;1250;25304;-79
2023/04/27 13:26:31;;;;;;;11.00;4.10;;;;;;;;;;108104;1250;22542;-75
2023/04/27 13:28:58;;;;;;;8.50;5.80;;;;;;;;;;108104;1250;25321;-79
2023/04/27 13:31:24;;;;;;;7.80;4.50;;;;;;;;;;107947;1250;25372;-73
2023/04/27 13:33:51;;;;;;;10.50;5.50;;;;;;;;;;107814;1250;22517;-76
2023/04/27 13:36:17;;;;;;;9.30;4.80;;;;;;;;;;107846;1250;24208;-78
2023/04/27 13:38:44;;;;;;;8.50;5.20;;;;;;;;;;107746;1251;22562;-78
2023/04/27 13:41:10;;;;;;;8.10;5.70;;;;;;;;;;107829;1250;22660;-78
2023/04/27 13:43:37;;;;;;;10.20;6.00;;;;;;;;;;107762;1250;23754;-76
2023/04/27 13:46:03;;;;;;;8.30;6.10;;;;;;;;;;107811;1250;23808;-77
2023/04/27 13:48:30;;;;;;;12.60;5.40;;;;;;;;;;108362;1250;22927;-78
2023/04/27 13:50:57;;;;;;;13.80;5.70;;;;;;;;;;108018;1252;22594;-77
2023/04/27 13:53:26;;;;;;;10.50;4.80;;;;;;;;;;107734;1250;25363;-78
2023/04/27 13:55:53;;;;;;;10.50;5.30;;;;;;;;;;107685;1250;22700;-76
2023/04/27 13:58:19;;;;;;;9.20;4.40;;;;;;;;;;110675;1248;157454;-79
2023/04/27 14:00:47;;;;;;;7.00;4.50;;;;;;;;;;108996;1250;22586;-78
2023/04/27 14:03:15;;;;;;;11.90;6.90;;;;;;;;;;108072;1248;22536;-78
2023/04/27 14:05:43;;;;;;;10.20;6.20;;;;;;;;;;110787;1250;22161;-77
2023/04/27 14:08:09;;;;;;;9.20;5.50;;;;;;;;;;110546;1248;22517;-79
2023/04/27 14:10:39;;;;;;;10.50;5.70;;;;;;;;;;107931;1250;25385;-77
2023/04/27 14:13:05;;;;;;;10.80;5.50;;;;;;;;;;107877;1252;23175;-77